sensor_id;sensor_type;location;lat;lon;timestamp;P1;durP1;ratioP1;P2;durP2;ratioP2
42006;SDS011;27696;42.704;23.304;2022-12-07T00:02:01;36.15;;;22.80;;
42006;SDS011;27696;42.704;23.304;2022-12-07T00:04:26;36.13;;;21.83;;
42006;SDS011;27696;42.704;23.304;2022-12-07T00:06:52;37.78;;;23.45;;
42006;SDS011;27696;42.704;23.304;2022-12-07T00:09:18;39.30;;;22.50;;
42006;SDS011;27696;42.704;23.304;2022-12-07T00:11:44;35.22;;;22.70;;
42006;SDS011;27696;42.704;23.304;2022-12-07T00:14:14;36.30;;;23.70;;
42006;SDS011;27696;42.704;23.304;2022-12-07T00:16:40;39.88;;;23.30;;
42006;SDS011;27696;42.704;23.304;2022-12-07T00:19:06;36.35;;;23.52;;
42006;SDS011;27696;42.704;23.304;2022-12-07T00:21:32;34.55;;;22.83;;
42006;SDS011;27696;42.704;23.304;2022-12-07T00:23:59;36.38;;;24.23;;
42006;SDS011;27696;42.704;23.304;2022-12-07T00:26:29;36.70;;;24.98;;
42006;SDS011;27696;42.704;23.304;2022-12-07T00:28:57;36.35;;;24.20;;
42006;SDS011;27696;42.704;23.304;2022-12-07T00:31:25;37.13;;;23.05;;
42006;SDS011;27696;42.704;23.304;2022-12-07T00:33:52;33.20;;;23.67;;
42006;SDS011;27696;42.704;23.304;2022-12-07T00:36:18;36.67;;;23.73;;
42006;SDS011;27696;42.704;23.304;2022-12-07T00:38:45;36.80;;;23.50;;
42006;SDS011;27696;42.704;23.304;2022-12-07T00:41:12;42.45;;;24.40;;
42006;SDS011;27696;42.704;23.304;2022-12-07T00:43:38;43.72;;;24.10;;
42006;SDS011;27696;42.704;23.304;2022-12-07T00:46:04;36.00;;;24.27;;
42006;SDS011;27696;42.704;23.304;2022-12-07T00:48:30;36.40;;;24.58;;
42006;SDS011;27696;42.704;23.304;2022-12-07T00:50:55;37.30;;;23.40;;
42006;SDS011;27696;42.704;23.304;2022-12-07T00:53:21;36.88;;;24.40;;
42006;SDS011;27696;42.704;23.304;2022-12-07T00:55:47;38.03;;;24.35;;
42006;SDS011;27696;42.704;23.304;2022-12-07T00:58:12;40.03;;;23.65;;
42006;SDS011;27696;42.704;23.304;2022-12-07T01:00:38;38.30;;;22.85;;
42006;SDS011;27696;42.704;23.304;2022-12-07T01:03:05;41.28;;;23.83;;
42006;SDS011;27696;42.704;23.304;2022-12-07T01:05:31;38.33;;;23.33;;
42006;SDS011;27696;42.704;23.304;2022-12-07T01:07:57;34.97;;;23.73;;
42006;SDS011;27696;42.704;23.304;2022-12-07T01:10:24;40.40;;;24.17;;
42006;SDS011;27696;42.704;23.304;2022-12-07T01:12:49;41.67;;;24.15;;
42006;SDS011;27696;42.704;23.304;2022-12-07T01:15:15;37.60;;;24.88;;
42006;SDS011;27696;42.704;23.304;2022-12-07T01:17:40;38.92;;;23.45;;
42006;SDS011;27696;42.704;23.304;2022-12-07T01:20:06;35.50;;;24.33;;
42006;SDS011;27696;42.704;23.304;2022-12-07T01:22:36;35.80;;;23.20;;
42006;SDS011;27696;42.704;23.304;2022-12-07T01:25:05;32.58;;;22.42;;
42006;SDS011;27696;42.704;23.304;2022-12-07T01:27:33;34.65;;;23.75;;
42006;SDS011;27696;42.704;23.304;2022-12-07T01:29:59;42.45;;;23.05;;
42006;SDS011;27696;42.704;23.304;2022-12-07T01:32:25;35.65;;;22.85;;
42006;SDS011;27696;42.704;23.304;2022-12-07T01:34:50;40.85;;;23.98;;
42006;SDS011;27696;42.704;23.304;2022-12-07T01:37:15;39.05;;;22.92;;
42006;SDS011;27696;42.704;23.304;2022-12-07T01:39:41;35.58;;;23.42;;
42006;SDS011;27696;42.704;23.304;2022-12-07T01:42:10;37.22;;;23.75;;
42006;SDS011;27696;42.704;23.304;2022-12-07T01:47:39;35.55;;;22.55;;
42006;SDS011;27696;42.704;23.304;2022-12-07T01:50:04;34.80;;;22.67;;
42006;SDS011;27696;42.704;23.304;2022-12-07T01:52:30;37.35;;;22.67;;
42006;SDS011;27696;42.704;23.304;2022-12-07T01:54:58;33.95;;;21.90;;
42006;SDS011;27696;42.704;23.304;2022-12-07T01:57:25;33.13;;;22.83;;
42006;SDS011;27696;42.704;23.304;2022-12-07T01:59:51;34.95;;;22.48;;
42006;SDS011;27696;42.704;23.304;2022-12-07T02:03:01;38.20;;;23.23;;
42006;SDS011;27696;42.704;23.304;2022-12-07T02:05:08;42.38;;;23.77;;
42006;SDS011;27696;42.704;23.304;2022-12-07T02:07:34;39.55;;;25.88;;
42006;SDS011;27696;42.704;23.304;2022-12-07T02:10:18;41.05;;;25.33;;
42006;SDS011;27696;42.704;23.304;2022-12-07T02:12:52;37.35;;;24.10;;
42006;SDS011;27696;42.704;23.304;2022-12-07T02:15:21;37.13;;;23.90;;
42006;SDS011;27696;42.704;23.304;2022-12-07T02:17:52;35.40;;;24.17;;
42006;SDS011;27696;42.704;23.304;2022-12-07T02:20:33;40.00;;;25.30;;
42006;SDS011;27696;42.704;23.304;2022-12-07T02:30:58;43.80;;;26.38;;
42006;SDS011;27696;42.704;23.304;2022-12-07T02:33:35;43.38;;;26.50;;
42006;SDS011;27696;42.704;23.304;2022-12-07T02:36:11;39.55;;;25.58;;
42006;SDS011;27696;42.704;23.304;2022-12-07T02:38:48;37.83;;;25.95;;
42006;SDS011;27696;42.704;23.304;2022-12-07T02:41:27;43.85;;;25.58;;
42006;SDS011;27696;42.704;23.304;2022-12-07T02:43:56;45.60;;;27.45;;
42006;SDS011;27696;42.704;23.304;2022-12-07T02:46:24;46.97;;;28.17;;
42006;SDS011;27696;42.704;23.304;2022-12-07T02:48:52;47.63;;;28.88;;
42006;SDS011;27696;42.704;23.304;2022-12-07T02:51:18;45.35;;;29.13;;
42006;SDS011;27696;42.704;23.304;2022-12-07T02:53:44;44.45;;;29.85;;
42006;SDS011;27696;42.704;23.304;2022-12-07T03:10:22;50.80;;;30.35;;
42006;SDS011;27696;42.704;23.304;2022-12-07T03:18:12;48.13;;;31.27;;
42006;SDS011;27696;42.704;23.304;2022-12-07T03:20:41;50.33;;;33.47;;
42006;SDS011;27696;42.704;23.304;2022-12-07T03:23:09;50.97;;;30.42;;
42006;SDS011;27696;42.704;23.304;2022-12-07T03:25:35;49.85;;;31.92;;
42006;SDS011;27696;42.704;23.304;2022-12-07T03:28:05;50.60;;;31.45;;
42006;SDS011;27696;42.704;23.304;2022-12-07T03:30:33;50.63;;;30.60;;
42006;SDS011;27696;42.704;23.304;2022-12-07T03:33:11;49.42;;;31.13;;
42006;SDS011;27696;42.704;23.304;2022-12-07T03:35:44;49.78;;;31.10;;
42006;SDS011;27696;42.704;23.304;2022-12-07T03:43:24;45.78;;;30.05;;
42006;SDS011;27696;42.704;23.304;2022-12-07T03:53:45;50.70;;;30.65;;
42006;SDS011;27696;42.704;23.304;2022-12-07T03:56:12;44.05;;;30.55;;
42006;SDS011;27696;42.704;23.304;2022-12-07T03:58:39;47.72;;;29.38;;
42006;SDS011;27696;42.704;23.304;2022-12-07T04:01:05;52.25;;;31.92;;
42006;SDS011;27696;42.704;23.304;2022-12-07T04:03:30;48.35;;;31.27;;
42006;SDS011;27696;42.704;23.304;2022-12-07T04:05:56;43.83;;;30.02;;
42006;SDS011;27696;42.704;23.304;2022-12-07T04:08:22;48.05;;;29.85;;
42006;SDS011;27696;42.704;23.304;2022-12-07T04:10:48;46.63;;;28.40;;
42006;SDS011;27696;42.704;23.304;2022-12-07T04:13:13;51.65;;;28.13;;
42006;SDS011;27696;42.704;23.304;2022-12-07T04:15:39;48.22;;;28.42;;
42006;SDS011;27696;42.704;23.304;2022-12-07T04:18:05;44.05;;;27.40;;
42006;SDS011;27696;42.704;23.304;2022-12-07T04:20:30;47.67;;;28.58;;
42006;SDS011;27696;42.704;23.304;2022-12-07T04:22:56;52.80;;;28.77;;
42006;SDS011;27696;42.704;23.304;2022-12-07T04:25:21;48.15;;;29.85;;
42006;SDS011;27696;42.704;23.304;2022-12-07T04:27:47;49.03;;;28.83;;
42006;SDS011;27696;42.704;23.304;2022-12-07T04:30:12;51.40;;;30.92;;
42006;SDS011;27696;42.704;23.304;2022-12-07T04:32:37;52.83;;;28.30;;
42006;SDS011;27696;42.704;23.304;2022-12-07T04:35:03;44.47;;;27.55;;
42006;SDS011;27696;42.704;23.304;2022-12-07T04:37:29;43.33;;;28.48;;
42006;SDS011;27696;42.704;23.304;2022-12-07T04:39:54;51.85;;;30.27;;
42006;SDS011;27696;42.704;23.304;2022-12-07T04:42:20;44.33;;;28.23;;
42006;SDS011;27696;42.704;23.304;2022-12-07T04:44:45;48.60;;;28.48;;
42006;SDS011;27696;42.704;23.304;2022-12-07T04:47:11;50.70;;;27.67;;
42006;SDS011;27696;42.704;23.304;2022-12-07T04:49:36;43.80;;;26.73;;
42006;SDS011;27696;42.704;23.304;2022-12-07T04:52:02;42.60;;;25.65;;
42006;SDS011;27696;42.704;23.304;2022-12-07T04:54:27;45.45;;;28.70;;
42006;SDS011;27696;42.704;23.304;2022-12-07T04:56:53;47.25;;;28.88;;
42006;SDS011;27696;42.704;23.304;2022-12-07T04:59:18;44.05;;;27.70;;
42006;SDS011;27696;42.704;23.304;2022-12-07T05:01:43;45.03;;;26.70;;
42006;SDS011;27696;42.704;23.304;2022-12-07T05:04:09;41.40;;;26.70;;
42006;SDS011;27696;42.704;23.304;2022-12-07T05:06:35;44.13;;;26.00;;
42006;SDS011;27696;42.704;23.304;2022-12-07T05:09:00;50.72;;;26.17;;
42006;SDS011;27696;42.704;23.304;2022-12-07T05:11:26;54.25;;;32.85;;
42006;SDS011;27696;42.704;23.304;2022-12-07T05:14:05;52.55;;;33.25;;
42006;SDS011;27696;42.704;23.304;2022-12-07T05:16:39;55.83;;;36.55;;
42006;SDS011;27696;42.704;23.304;2022-12-07T05:19:05;65.93;;;39.17;;
42006;SDS011;27696;42.704;23.304;2022-12-07T05:21:31;59.42;;;35.90;;
42006;SDS011;27696;42.704;23.304;2022-12-07T05:23:57;56.53;;;33.03;;
42006;SDS011;27696;42.704;23.304;2022-12-07T05:26:22;55.55;;;34.10;;
42006;SDS011;27696;42.704;23.304;2022-12-07T05:28:51;51.08;;;30.90;;
42006;SDS011;27696;42.704;23.304;2022-12-07T05:31:17;55.60;;;32.00;;
42006;SDS011;27696;42.704;23.304;2022-12-07T05:33:43;55.83;;;32.45;;
42006;SDS011;27696;42.704;23.304;2022-12-07T05:36:08;55.92;;;32.63;;
42006;SDS011;27696;42.704;23.304;2022-12-07T05:38:34;54.90;;;32.10;;
42006;SDS011;27696;42.704;23.304;2022-12-07T05:41:00;50.00;;;31.02;;
42006;SDS011;27696;42.704;23.304;2022-12-07T05:43:27;51.08;;;30.63;;
42006;SDS011;27696;42.704;23.304;2022-12-07T05:45:53;53.60;;;31.10;;
42006;SDS011;27696;42.704;23.304;2022-12-07T05:48:18;56.35;;;31.05;;
42006;SDS011;27696;42.704;23.304;2022-12-07T05:50:43;53.00;;;29.30;;
42006;SDS011;27696;42.704;23.304;2022-12-07T05:53:09;44.90;;;29.40;;
42006;SDS011;27696;42.704;23.304;2022-12-07T05:55:34;56.13;;;28.73;;
42006;SDS011;27696;42.704;23.304;2022-12-07T05:58:00;45.80;;;28.30;;
42006;SDS011;27696;42.704;23.304;2022-12-07T06:00:44;44.88;;;28.23;;
42006;SDS011;27696;42.704;23.304;2022-12-07T06:03:09;47.67;;;28.27;;
42006;SDS011;27696;42.704;23.304;2022-12-07T06:05:34;45.63;;;28.50;;
42006;SDS011;27696;42.704;23.304;2022-12-07T06:08:00;52.03;;;29.08;;
42006;SDS011;27696;42.704;23.304;2022-12-07T06:10:25;47.00;;;29.70;;
42006;SDS011;27696;42.704;23.304;2022-12-07T06:12:51;53.42;;;30.90;;
42006;SDS011;27696;42.704;23.304;2022-12-07T06:15:16;53.78;;;33.20;;
42006;SDS011;27696;42.704;23.304;2022-12-07T06:17:42;51.42;;;32.85;;
42006;SDS011;27696;42.704;23.304;2022-12-07T06:20:07;52.45;;;32.33;;
42006;SDS011;27696;42.704;23.304;2022-12-07T06:22:32;47.55;;;31.60;;
42006;SDS011;27696;42.704;23.304;2022-12-07T06:24:58;50.92;;;32.03;;
42006;SDS011;27696;42.704;23.304;2022-12-07T06:27:23;61.72;;;34.88;;
42006;SDS011;27696;42.704;23.304;2022-12-07T06:29:49;53.05;;;33.42;;
42006;SDS011;27696;42.704;23.304;2022-12-07T06:32:14;51.10;;;33.17;;
42006;SDS011;27696;42.704;23.304;2022-12-07T06:34:40;50.42;;;31.35;;
42006;SDS011;27696;42.704;23.304;2022-12-07T06:37:05;59.78;;;33.88;;
42006;SDS011;27696;42.704;23.304;2022-12-07T06:39:31;52.67;;;32.03;;
42006;SDS011;27696;42.704;23.304;2022-12-07T06:41:56;54.22;;;33.72;;
42006;SDS011;27696;42.704;23.304;2022-12-07T06:44:22;53.40;;;33.55;;
42006;SDS011;27696;42.704;23.304;2022-12-07T06:46:48;59.40;;;33.60;;
42006;SDS011;27696;42.704;23.304;2022-12-07T06:49:14;57.50;;;34.45;;
42006;SDS011;27696;42.704;23.304;2022-12-07T06:51:40;61.92;;;33.42;;
42006;SDS011;27696;42.704;23.304;2022-12-07T06:54:07;56.17;;;34.00;;
42006;SDS011;27696;42.704;23.304;2022-12-07T06:56:33;62.42;;;33.47;;
42006;SDS011;27696;42.704;23.304;2022-12-07T06:58:59;59.83;;;35.05;;
42006;SDS011;27696;42.704;23.304;2022-12-07T07:01:24;59.05;;;32.40;;
42006;SDS011;27696;42.704;23.304;2022-12-07T07:03:49;49.10;;;31.67;;
42006;SDS011;27696;42.704;23.304;2022-12-07T07:06:15;68.07;;;36.20;;
42006;SDS011;27696;42.704;23.304;2022-12-07T07:08:40;59.05;;;36.80;;
42006;SDS011;27696;42.704;23.304;2022-12-07T07:11:06;64.40;;;41.72;;
42006;SDS011;27696;42.704;23.304;2022-12-07T07:13:32;65.45;;;43.38;;
42006;SDS011;27696;42.704;23.304;2022-12-07T07:15:57;73.72;;;45.17;;
42006;SDS011;27696;42.704;23.304;2022-12-07T07:18:23;71.85;;;45.08;;
42006;SDS011;27696;42.704;23.304;2022-12-07T07:20:50;71.47;;;45.83;;
42006;SDS011;27696;42.704;23.304;2022-12-07T07:23:16;64.00;;;41.67;;
42006;SDS011;27696;42.704;23.304;2022-12-07T07:25:41;64.75;;;39.10;;
42006;SDS011;27696;42.704;23.304;2022-12-07T07:28:07;61.72;;;38.67;;
42006;SDS011;27696;42.704;23.304;2022-12-07T07:30:32;67.05;;;40.20;;
42006;SDS011;27696;42.704;23.304;2022-12-07T07:32:58;63.22;;;41.22;;
42006;SDS011;27696;42.704;23.304;2022-12-07T07:35:25;61.38;;;39.08;;
42006;SDS011;27696;42.704;23.304;2022-12-07T07:37:51;59.75;;;37.78;;
42006;SDS011;27696;42.704;23.304;2022-12-07T07:40:16;60.08;;;37.92;;
42006;SDS011;27696;42.704;23.304;2022-12-07T07:42:42;55.22;;;36.55;;
42006;SDS011;27696;42.704;23.304;2022-12-07T07:45:07;65.25;;;36.00;;
42006;SDS011;27696;42.704;23.304;2022-12-07T07:47:33;55.08;;;34.15;;
42006;SDS011;27696;42.704;23.304;2022-12-07T07:49:58;55.55;;;34.80;;
42006;SDS011;27696;42.704;23.304;2022-12-07T07:52:24;54.30;;;34.30;;
42006;SDS011;27696;42.704;23.304;2022-12-07T07:54:50;54.17;;;34.67;;
42006;SDS011;27696;42.704;23.304;2022-12-07T07:57:16;60.30;;;36.45;;
42006;SDS011;27696;42.704;23.304;2022-12-07T07:59:41;58.22;;;35.58;;
42006;SDS011;27696;42.704;23.304;2022-12-07T08:02:09;57.22;;;36.05;;
42006;SDS011;27696;42.704;23.304;2022-12-07T08:04:39;57.40;;;35.60;;
42006;SDS011;27696;42.704;23.304;2022-12-07T08:07:04;61.38;;;35.60;;
42006;SDS011;27696;42.704;23.304;2022-12-07T08:09:30;60.17;;;34.63;;
42006;SDS011;27696;42.704;23.304;2022-12-07T08:11:55;60.53;;;34.60;;
42006;SDS011;27696;42.704;23.304;2022-12-07T08:14:20;59.17;;;35.60;;
42006;SDS011;27696;42.704;23.304;2022-12-07T08:16:46;63.20;;;35.80;;
42006;SDS011;27696;42.704;23.304;2022-12-07T08:19:11;55.50;;;34.28;;
42006;SDS011;27696;42.704;23.304;2022-12-07T08:21:37;63.17;;;36.45;;
42006;SDS011;27696;42.704;23.304;2022-12-07T08:24:03;57.53;;;36.25;;
42006;SDS011;27696;42.704;23.304;2022-12-07T08:26:28;60.72;;;34.35;;
42006;SDS011;27696;42.704;23.304;2022-12-07T08:28:54;56.97;;;36.95;;
42006;SDS011;27696;42.704;23.304;2022-12-07T08:31:19;61.40;;;35.80;;
42006;SDS011;27696;42.704;23.304;2022-12-07T08:33:45;62.80;;;38.88;;
42006;SDS011;27696;42.704;23.304;2022-12-07T08:36:12;55.55;;;37.05;;
42006;SDS011;27696;42.704;23.304;2022-12-07T08:38:38;65.03;;;38.53;;
42006;SDS011;27696;42.704;23.304;2022-12-07T08:41:04;61.60;;;38.95;;
42006;SDS011;27696;42.704;23.304;2022-12-07T08:43:31;61.38;;;39.42;;
42006;SDS011;27696;42.704;23.304;2022-12-07T08:46:07;60.80;;;39.33;;
42006;SDS011;27696;42.704;23.304;2022-12-07T08:48:35;63.33;;;39.47;;
42006;SDS011;27696;42.704;23.304;2022-12-07T08:51:05;68.10;;;39.75;;
42006;SDS011;27696;42.704;23.304;2022-12-07T08:53:30;73.65;;;44.13;;
42006;SDS011;27696;42.704;23.304;2022-12-07T08:55:56;72.75;;;47.00;;
42006;SDS011;27696;42.704;23.304;2022-12-07T08:58:23;81.05;;;45.67;;
42006;SDS011;27696;42.704;23.304;2022-12-07T09:00:48;73.20;;;47.00;;
42006;SDS011;27696;42.704;23.304;2022-12-07T09:03:13;80.72;;;47.20;;
42006;SDS011;27696;42.704;23.304;2022-12-07T09:05:39;69.38;;;43.42;;
42006;SDS011;27696;42.704;23.304;2022-12-07T09:08:04;64.32;;;41.03;;
42006;SDS011;27696;42.704;23.304;2022-12-07T09:10:30;71.55;;;42.13;;
42006;SDS011;27696;42.704;23.304;2022-12-07T09:12:56;69.35;;;41.30;;
42006;SDS011;27696;42.704;23.304;2022-12-07T09:15:25;66.72;;;41.70;;
42006;SDS011;27696;42.704;23.304;2022-12-07T09:17:54;67.43;;;41.85;;
42006;SDS011;27696;42.704;23.304;2022-12-07T09:20:22;67.53;;;40.85;;
42006;SDS011;27696;42.704;23.304;2022-12-07T09:22:48;71.45;;;42.40;;
42006;SDS011;27696;42.704;23.304;2022-12-07T09:25:13;64.97;;;41.50;;
42006;SDS011;27696;42.704;23.304;2022-12-07T09:27:39;69.22;;;42.75;;
42006;SDS011;27696;42.704;23.304;2022-12-07T09:30:08;68.15;;;43.25;;
42006;SDS011;27696;42.704;23.304;2022-12-07T09:32:33;69.90;;;41.97;;
42006;SDS011;27696;42.704;23.304;2022-12-07T09:34:59;69.22;;;42.08;;
42006;SDS011;27696;42.704;23.304;2022-12-07T09:37:24;66.22;;;42.45;;
42006;SDS011;27696;42.704;23.304;2022-12-07T09:39:49;66.90;;;42.83;;
42006;SDS011;27696;42.704;23.304;2022-12-07T09:42:37;66.28;;;41.92;;
42006;SDS011;27696;42.704;23.304;2022-12-07T09:45:01;66.28;;;42.60;;
42006;SDS011;27696;42.704;23.304;2022-12-07T09:47:29;68.35;;;42.88;;
42006;SDS011;27696;42.704;23.304;2022-12-07T09:49:57;78.78;;;43.88;;
42006;SDS011;27696;42.704;23.304;2022-12-07T09:52:28;70.07;;;43.88;;
42006;SDS011;27696;42.704;23.304;2022-12-07T09:54:54;75.75;;;42.95;;
42006;SDS011;27696;42.704;23.304;2022-12-07T09:57:21;61.22;;;42.25;;
42006;SDS011;27696;42.704;23.304;2022-12-07T09:59:53;69.05;;;41.10;;
42006;SDS011;27696;42.704;23.304;2022-12-07T10:02:42;66.72;;;41.33;;
42006;SDS011;27696;42.704;23.304;2022-12-07T10:05:15;74.43;;;43.85;;
42006;SDS011;27696;42.704;23.304;2022-12-07T10:07:44;66.27;;;43.40;;
42006;SDS011;27696;42.704;23.304;2022-12-07T10:10:53;68.60;;;44.78;;
42006;SDS011;27696;42.704;23.304;2022-12-07T10:13:00;66.97;;;43.00;;
42006;SDS011;27696;42.704;23.304;2022-12-07T10:15:42;72.22;;;43.55;;
42006;SDS011;27696;42.704;23.304;2022-12-07T10:18:25;74.05;;;45.25;;
42006;SDS011;27696;42.704;23.304;2022-12-07T10:20:59;69.22;;;44.90;;
42006;SDS011;27696;42.704;23.304;2022-12-07T10:23:27;74.78;;;45.70;;
42006;SDS011;27696;42.704;23.304;2022-12-07T10:25:52;73.07;;;44.95;;
42006;SDS011;27696;42.704;23.304;2022-12-07T10:28:20;74.50;;;44.15;;
42006;SDS011;27696;42.704;23.304;2022-12-07T10:30:51;67.75;;;43.92;;
42006;SDS011;27696;42.704;23.304;2022-12-07T10:33:59;62.47;;;43.05;;
42006;SDS011;27696;42.704;23.304;2022-12-07T10:36:33;68.53;;;42.28;;
42006;SDS011;27696;42.704;23.304;2022-12-07T10:39:03;67.25;;;43.20;;
42006;SDS011;27696;42.704;23.304;2022-12-07T10:44:25;75.95;;;43.47;;
42006;SDS011;27696;42.704;23.304;2022-12-07T10:52:06;71.00;;;44.08;;
42006;SDS011;27696;42.704;23.304;2022-12-07T11:00:37;68.70;;;42.80;;
42006;SDS011;27696;42.704;23.304;2022-12-07T11:05:46;64.85;;;39.55;;
42006;SDS011;27696;42.704;23.304;2022-12-07T11:11:19;58.10;;;35.92;;
42006;SDS011;27696;42.704;23.304;2022-12-07T11:16:55;52.78;;;31.92;;
42006;SDS011;27696;42.704;23.304;2022-12-07T11:19:32;55.97;;;32.05;;
42006;SDS011;27696;42.704;23.304;2022-12-07T11:22:08;48.47;;;31.40;;
42006;SDS011;27696;42.704;23.304;2022-12-07T11:24:46;49.33;;;30.98;;
42006;SDS011;27696;42.704;23.304;2022-12-07T11:27:19;48.85;;;31.88;;
42006;SDS011;27696;42.704;23.304;2022-12-07T11:29:59;49.97;;;31.35;;
42006;SDS011;27696;42.704;23.304;2022-12-07T11:35:38;49.58;;;33.40;;
42006;SDS011;27696;42.704;23.304;2022-12-07T11:38:12;53.17;;;30.58;;
42006;SDS011;27696;42.704;23.304;2022-12-07T11:40:38;41.28;;;28.45;;
42006;SDS011;27696;42.704;23.304;2022-12-07T11:43:14;51.78;;;29.20;;
42006;SDS011;27696;42.704;23.304;2022-12-07T11:45:43;42.15;;;25.13;;
42006;SDS011;27696;42.704;23.304;2022-12-07T11:53:20;38.75;;;24.40;;
42006;SDS011;27696;42.704;23.304;2022-12-07T11:55:50;46.72;;;34.20;;
42006;SDS011;27696;42.704;23.304;2022-12-07T11:58:38;41.67;;;25.38;;
42006;SDS011;27696;42.704;23.304;2022-12-07T12:03:38;33.55;;;23.17;;
42006;SDS011;27696;42.704;23.304;2022-12-07T12:06:06;37.65;;;23.13;;
42006;SDS011;27696;42.704;23.304;2022-12-07T12:17:54;41.97;;;23.95;;
42006;SDS011;27696;42.704;23.304;2022-12-07T12:20:43;35.38;;;23.30;;
42006;SDS011;27696;42.704;23.304;2022-12-07T12:23:13;42.22;;;22.92;;
42006;SDS011;27696;42.704;23.304;2022-12-07T12:28:18;36.47;;;23.52;;
42006;SDS011;27696;42.704;23.304;2022-12-07T12:30:49;36.15;;;22.73;;
42006;SDS011;27696;42.704;23.304;2022-12-07T12:33:30;39.05;;;22.98;;
42006;SDS011;27696;42.704;23.304;2022-12-07T12:44:02;28.00;;;20.33;;
42006;SDS011;27696;42.704;23.304;2022-12-07T12:48:54;41.35;;;18.67;;
42006;SDS011;27696;42.704;23.304;2022-12-07T12:51:40;30.92;;;18.25;;
42006;SDS011;27696;42.704;23.304;2022-12-07T12:54:18;31.10;;;17.50;;
42006;SDS011;27696;42.704;23.304;2022-12-07T13:02:16;33.58;;;18.33;;
42006;SDS011;27696;42.704;23.304;2022-12-07T13:04:49;28.42;;;18.48;;
42006;SDS011;27696;42.704;23.304;2022-12-07T13:10:21;31.92;;;18.83;;
42006;SDS011;27696;42.704;23.304;2022-12-07T13:15:52;31.75;;;18.95;;
42006;SDS011;27696;42.704;23.304;2022-12-07T13:20:54;31.88;;;17.45;;
42006;SDS011;27696;42.704;23.304;2022-12-07T13:23:25;28.63;;;18.17;;
42006;SDS011;27696;42.704;23.304;2022-12-07T13:25:55;26.33;;;18.60;;
42006;SDS011;27696;42.704;23.304;2022-12-07T13:28:44;30.10;;;18.60;;
42006;SDS011;27696;42.704;23.304;2022-12-07T13:39:27;28.67;;;17.15;;
42006;SDS011;27696;42.704;23.304;2022-12-07T13:44:20;32.50;;;19.63;;
42006;SDS011;27696;42.704;23.304;2022-12-07T13:46:52;33.95;;;19.80;;
42006;SDS011;27696;42.704;23.304;2022-12-07T13:49:38;28.90;;;19.25;;
42006;SDS011;27696;42.704;23.304;2022-12-07T13:52:17;29.85;;;19.00;;
42006;SDS011;27696;42.704;23.304;2022-12-07T13:55:26;29.50;;;18.70;;
42006;SDS011;27696;42.704;23.304;2022-12-07T13:57:40;30.52;;;19.95;;
42006;SDS011;27696;42.704;23.304;2022-12-07T14:00:13;27.38;;;18.10;;
42006;SDS011;27696;42.704;23.304;2022-12-07T14:05:42;30.50;;;19.67;;
42006;SDS011;27696;42.704;23.304;2022-12-07T14:10:41;33.17;;;20.92;;
42006;SDS011;27696;42.704;23.304;2022-12-07T14:13:31;30.55;;;20.20;;
42006;SDS011;27696;42.704;23.304;2022-12-07T14:19:00;34.30;;;19.15;;
42006;SDS011;27696;42.704;23.304;2022-12-07T14:21:28;31.00;;;19.00;;
42006;SDS011;27696;42.704;23.304;2022-12-07T14:26:32;33.63;;;18.77;;
42006;SDS011;27696;42.704;23.304;2022-12-07T14:29:18;33.45;;;19.80;;
42006;SDS011;27696;42.704;23.304;2022-12-07T14:31:46;31.45;;;19.00;;
42006;SDS011;27696;42.704;23.304;2022-12-07T14:34:11;37.63;;;19.77;;
42006;SDS011;27696;42.704;23.304;2022-12-07T14:36:37;32.13;;;20.08;;
42006;SDS011;27696;42.704;23.304;2022-12-07T14:39:03;37.45;;;20.17;;
42006;SDS011;27696;42.704;23.304;2022-12-07T14:41:28;26.00;;;19.10;;
42006;SDS011;27696;42.704;23.304;2022-12-07T14:44:12;34.33;;;19.08;;
42006;SDS011;27696;42.704;23.304;2022-12-07T14:46:38;37.80;;;20.17;;
42006;SDS011;27696;42.704;23.304;2022-12-07T14:49:03;31.58;;;20.67;;
42006;SDS011;27696;42.704;23.304;2022-12-07T14:51:30;37.10;;;20.83;;
42006;SDS011;27696;42.704;23.304;2022-12-07T14:53:55;30.08;;;20.75;;
42006;SDS011;27696;42.704;23.304;2022-12-07T14:56:20;30.10;;;21.67;;
42006;SDS011;27696;42.704;23.304;2022-12-07T14:58:46;33.38;;;20.67;;
42006;SDS011;27696;42.704;23.304;2022-12-07T15:01:13;34.72;;;20.95;;
42006;SDS011;27696;42.704;23.304;2022-12-07T15:03:38;37.55;;;22.85;;
42006;SDS011;27696;42.704;23.304;2022-12-07T15:06:05;41.33;;;21.30;;
42006;SDS011;27696;42.704;23.304;2022-12-07T15:08:31;41.20;;;23.25;;
42006;SDS011;27696;42.704;23.304;2022-12-07T15:10:56;43.53;;;24.02;;
42006;SDS011;27696;42.704;23.304;2022-12-07T15:13:23;35.97;;;22.00;;
42006;SDS011;27696;42.704;23.304;2022-12-07T15:16:10;56.60;;;23.40;;
42006;SDS011;27696;42.704;23.304;2022-12-07T15:18:36;43.28;;;24.05;;
42006;SDS011;27696;42.704;23.304;2022-12-07T15:21:02;45.28;;;24.05;;
42006;SDS011;27696;42.704;23.304;2022-12-07T15:23:27;48.30;;;26.48;;
42006;SDS011;27696;42.704;23.304;2022-12-07T15:25:53;50.28;;;27.08;;
42006;SDS011;27696;42.704;23.304;2022-12-07T15:28:18;58.60;;;27.33;;
42006;SDS011;27696;42.704;23.304;2022-12-07T15:30:44;65.05;;;28.38;;
42006;SDS011;27696;42.704;23.304;2022-12-07T15:33:14;70.18;;;28.90;;
42006;SDS011;27696;42.704;23.304;2022-12-07T15:35:40;57.83;;;29.10;;
42006;SDS011;27696;42.704;23.304;2022-12-07T15:38:06;71.80;;;32.35;;
42006;SDS011;27696;42.704;23.304;2022-12-07T15:40:32;63.30;;;30.98;;
42006;SDS011;27696;42.704;23.304;2022-12-07T15:42:57;56.08;;;30.25;;
42006;SDS011;27696;42.704;23.304;2022-12-07T15:45:22;58.97;;;29.88;;
42006;SDS011;27696;42.704;23.304;2022-12-07T15:47:48;54.58;;;31.30;;
42006;SDS011;27696;42.704;23.304;2022-12-07T15:50:14;62.97;;;33.78;;
42006;SDS011;27696;42.704;23.304;2022-12-07T15:52:41;59.90;;;31.63;;
42006;SDS011;27696;42.704;23.304;2022-12-07T15:55:07;59.72;;;32.42;;
42006;SDS011;27696;42.704;23.304;2022-12-07T15:57:33;69.97;;;35.38;;
42006;SDS011;27696;42.704;23.304;2022-12-07T16:00:00;78.63;;;37.05;;
42006;SDS011;27696;42.704;23.304;2022-12-07T16:02:25;74.70;;;38.83;;
42006;SDS011;27696;42.704;23.304;2022-12-07T16:04:51;90.13;;;54.83;;
42006;SDS011;27696;42.704;23.304;2022-12-07T16:07:17;93.47;;;55.38;;
42006;SDS011;27696;42.704;23.304;2022-12-07T16:09:44;93.25;;;54.00;;
42006;SDS011;27696;42.704;23.304;2022-12-07T16:12:10;89.82;;;49.17;;
42006;SDS011;27696;42.704;23.304;2022-12-07T16:14:36;94.90;;;51.95;;
42006;SDS011;27696;42.704;23.304;2022-12-07T16:17:02;83.97;;;50.25;;
42006;SDS011;27696;42.704;23.304;2022-12-07T16:19:29;81.22;;;50.95;;
42006;SDS011;27696;42.704;23.304;2022-12-07T16:21:55;91.38;;;48.67;;
42006;SDS011;27696;42.704;23.304;2022-12-07T16:24:21;86.53;;;48.28;;
42006;SDS011;27696;42.704;23.304;2022-12-07T16:26:46;91.57;;;48.00;;
42006;SDS011;27696;42.704;23.304;2022-12-07T16:29:12;83.03;;;47.40;;
42006;SDS011;27696;42.704;23.304;2022-12-07T16:31:38;92.85;;;48.78;;